Time;durP1;ratioP1;P1;durP2;ratioP2;P2;SDS_P1;SDS_P2;PMS_P1;PMS_P2;Temp;Humidity;BMP_temperature;BMP_pressure;BME280_temperature;BME280_humidity;BME280_pressure;Samples;Min_cycle;Max_cycle;Signal;HPM_P1;HPM_P2
2021/03/21 00:01:39;;;;;;;153.42;55.63;;;;;;;-6.52;62.48;97615.72;1821684;77;28508;-88
2021/03/21 00:04:06;;;;;;;148.20;53.60;;;;;;;-6.63;62.54;97603.27;1825211;77;25726;-87
2021/03/21 00:06:34;;;;;;;131.55;51.40;;;;;;;-6.64;62.64;97603.39;1825428;78;25678;-88
2021/03/21 00:09:01;;;;;;;230.15;71.45;;;;;;;-6.67;62.67;97598.33;1825337;78;25763;-87
2021/03/21 00:11:29;;;;;;;201.90;65.32;;;;;;;-6.62;62.73;97596.23;1825557;78;25739;-88
2021/03/21 00:13:56;;;;;;;156.37;54.65;;;;;;;-6.63;62.68;97593.23;1825529;78;28464;-87
2021/03/21 00:16:23;;;;;;;128.47;50.63;;;;;;;-6.64;62.67;97587.64;1825367;78;25685;-87
2021/03/21 00:18:51;;;;;;;137.20;53.33;;;;;;;-6.62;62.81;97580.00;1825392;78;25741;-88
2021/03/21 00:21:19;;;;;;;147.15;53.80;;;;;;;-6.59;62.82;97573.72;1825380;78;25722;-87
2021/03/21 00:23:46;;;;;;;164.03;53.28;;;;;;;-6.61;62.75;97572.97;1825424;78;25730;-87
2021/03/21 00:26:14;;;;;;;112.50;42.00;;;;;;;-6.63;62.81;97565.66;1825475;77;27459;-87
2021/03/21 00:28:42;;;;;;;100.20;40.83;;;;;;;-6.64;62.82;97563.50;1825447;78;25359;-87
2021/03/21 00:31:13;;;;;;;108.05;41.45;;;;;;;-6.68;62.86;97556.80;1825604;77;25287;-87
2021/03/21 00:33:42;;;;;;;105.10;40.30;;;;;;;-6.70;62.94;97559.98;1825583;78;25682;-85
2021/03/21 00:36:13;;;;;;;103.55;40.30;;;;;;;-6.69;62.99;97553.80;1825816;78;25359;-89
2021/03/21 00:38:48;;;;;;;103.00;40.90;;;;;;;-6.72;62.95;97559.24;1825546;78;28541;-86
2021/03/21 00:41:20;;;;;;;97.25;36.20;;;;;;;-6.74;63.07;97549.31;1825396;78;25882;-88
2021/03/21 00:43:48;;;;;;;80.92;35.58;;;;;;;-6.66;63.23;97544.88;1824818;78;25717;-88
2021/03/21 00:46:15;;;;;;;88.15;36.80;;;;;;;-6.62;63.21;97534.52;1825503;78;26528;-87
2021/03/21 00:48:45;;;;;;;84.47;36.30;;;;;;;-6.56;63.23;97528.88;1825532;78;25786;-87
2021/03/21 00:51:15;;;;;;;95.30;39.50;;;;;;;-6.48;63.20;97523.94;1825599;78;27480;-88
2021/03/21 00:53:44;;;;;;;87.05;33.85;;;;;;;-6.45;63.11;97519.80;1825367;77;25765;-88
2021/03/21 00:59:12;;;;;;;90.38;34.55;;;;;;;-6.37;62.95;97512.23;1873406;76;34712;-86
2021/03/21 01:01:40;;;;;;;103.80;36.90;;;;;;;-6.44;62.93;97508.36;1852786;77;25780;-88
2021/03/21 01:04:07;;;;;;;91.12;34.95;;;;;;;-6.51;62.87;97501.82;1852738;77;28089;-87
2021/03/21 01:06:34;;;;;;;91.10;36.70;;;;;;;-6.61;62.93;97501.61;1852736;77;25803;-89
2021/03/21 01:09:07;;;;;;;88.95;37.05;;;;;;;-6.70;62.89;97494.83;1852760;76;26352;-89
2021/03/21 01:11:37;;;;;;;114.52;43.17;;;;;;;-6.72;63.10;97500.64;1852602;76;25593;-90
2021/03/21 01:14:07;;;;;;;136.12;46.88;;;;;;;-6.74;63.21;97497.27;1852779;77;25844;-89
2021/03/21 01:16:41;;;;;;;123.25;43.33;;;;;;;-6.76;63.28;97488.19;1852601;77;27448;-89
2021/03/21 01:19:16;;;;;;;119.45;44.85;;;;;;;-6.82;63.14;97489.92;1852627;77;25697;-88
2021/03/21 01:21:44;;;;;;;120.57;42.95;;;;;;;-6.87;63.30;97489.38;1852747;77;25693;-90
2021/03/21 01:24:21;;;;;;;118.08;42.40;;;;;;;-6.87;63.26;97483.28;1852617;77;26315;-87
2021/03/21 01:26:50;;;;;;;105.40;37.75;;;;;;;-6.97;63.38;97476.03;1853114;77;25840;-86
2021/03/21 01:29:18;;;;;;;108.83;40.38;;;;;;;-6.88;63.65;97472.45;1852910;77;27461;-89
2021/03/21 01:31:46;;;;;;;121.95;42.53;;;;;;;-6.91;63.58;97475.64;1852670;77;25807;-87
2021/03/21 01:34:14;;;;;;;122.60;44.83;;;;;;;-6.99;63.65;97470.05;1852751;77;25799;-86
2021/03/21 01:36:41;;;;;;;108.90;38.53;;;;;;;-6.96;63.80;97467.22;1852567;77;25822;-89
2021/03/21 01:39:23;;;;;;;109.65;41.20;;;;;;;-6.89;63.91;97464.20;1852556;77;26132;-89
2021/03/21 01:41:59;;;;;;;95.47;32.10;;;;;;;-6.84;63.85;97464.72;1851771;77;27557;-89
2021/03/21 01:44:26;;;;;;;126.02;39.85;;;;;;;-6.84;63.79;97462.09;1852578;77;25259;-88
2021/03/21 01:47:04;;;;;;;141.85;45.33;;;;;;;-6.86;63.72;97461.34;1852644;77;25632;-89
2021/03/21 01:49:39;;;;;;;102.12;37.15;;;;;;;-6.85;63.77;97445.97;1852679;77;25665;-87
2021/03/21 01:52:07;;;;;;;106.12;35.65;;;;;;;-6.84;63.73;97448.97;1852656;77;25735;-87
2021/03/21 01:54:41;;;;;;;127.62;41.77;;;;;;;-6.78;63.83;97447.27;1852472;76;27548;-84
2021/03/21 01:57:11;;;;;;;138.62;42.58;;;;;;;-6.76;63.75;97438.81;1852507;77;25651;-87
2021/03/21 01:59:39;;;;;;;127.90;42.33;;;;;;;-6.76;63.67;97444.06;1852685;77;25637;-86
2021/03/21 02:02:06;;;;;;;95.32;33.75;;;;;;;-6.83;63.60;97446.72;1852600;77;25762;-87
2021/03/21 02:04:34;;;;;;;91.95;33.25;;;;;;;-6.87;63.70;97445.23;1852687;77;25684;-86
2021/03/21 02:07:22;;;;;;;70.20;30.48;;;;;;;-6.94;63.76;97451.38;1852718;77;27484;-86
2021/03/21 02:10:40;;;;;;;81.20;30.17;;;;;;;-7.00;63.77;97444.73;1852141;77;25737;-88
2021/03/21 02:13:12;;;;;;;152.12;43.28;;;;;;;-7.03;63.83;97440.19;1851980;77;25329;-88
2021/03/21 02:16:06;;;;;;;190.32;53.45;;;;;;;-6.93;63.88;97427.66;1852178;77;26167;-87
2021/03/21 02:19:01;;;;;;;117.17;41.75;;;;;;;-6.94;63.81;97420.73;1851890;77;25784;-86
2021/03/21 02:21:56;;;;;;;98.65;36.65;;;;;;;-7.00;63.79;97430.31;1852055;77;27490;-87
2021/03/21 02:24:58;;;;;;;77.97;32.65;;;;;;;-7.05;63.94;97419.30;1851970;77;25660;-86
2021/03/21 02:27:58;;;;;;;83.85;33.95;;;;;;;-6.99;63.97;97421.97;1852147;77;25776;-85
2021/03/21 02:30:33;;;;;;;86.63;34.18;;;;;;;-6.97;63.94;97408.28;1768259;80;25758;-86
2021/03/21 02:33:17;;;;;;;82.15;33.92;;;;;;;-6.94;63.96;97407.61;1768305;81;26296;-85
2021/03/21 02:38:50;;;;;;;67.72;31.77;;;;;;;-6.88;63.92;97395.03;1886956;76;34780;-88
2021/03/21 02:41:41;;;;;;;69.53;29.23;;;;;;;-7.02;63.86;97388.93;1857930;77;25784;-88
2021/03/21 02:44:29;;;;;;;58.10;25.35;;;;;;;-7.00;63.98;97384.39;1857855;77;28502;-88
2021/03/21 02:47:04;;;;;;;69.40;28.98;;;;;;;-7.03;63.98;97383.31;1857756;77;26115;-87
2021/03/21 02:49:39;;;;;;;108.60;42.05;;;;;;;-7.01;63.93;97379.27;1857833;77;25831;-88
2021/03/21 02:54:57;;;;;;;68.57;26.60;;;;;;;-7.00;63.98;97373.89;1849475;76;34796;-89
2021/03/21 02:57:30;;;;;;;57.38;24.32;;;;;;;-7.03;63.97;97359.70;1757622;78;25716;-88
2021/03/21 03:00:01;;;;;;;90.67;29.00;;;;;;;-6.99;63.87;97363.77;1820118;77;27484;-89
2021/03/21 03:05:30;;;;;;;68.25;27.70;;;;;;;-6.88;63.87;97351.22;1850277;77;35164;-88
2021/03/21 03:08:21;;;;;;;52.93;22.98;;;;;;;-7.04;63.79;97354.08;1763126;81;26339;-88
2021/03/21 03:11:06;;;;;;;60.33;23.80;;;;;;;-7.06;63.82;97348.09;1794547;79;27559;-87
2021/03/21 03:13:44;;;;;;;57.43;23.85;;;;;;;-6.99;63.92;97346.72;1793500;79;25822;-88
2021/03/21 03:16:49;;;;;;;54.83;22.42;;;;;;;-6.98;63.84;97336.59;1790648;79;25736;-88
2021/03/21 03:19:42;;;;;;;51.15;21.70;;;;;;;-7.04;63.85;97329.16;1793991;79;25772;-88
2021/03/21 03:22:32;;;;;;;55.75;23.30;;;;;;;-7.15;63.91;97327.73;1794597;79;25774;-87
2021/03/21 03:25:13;;;;;;;56.92;24.85;;;;;;;-7.23;64.00;97323.93;1794577;79;28517;-87
2021/03/21 03:28:11;;;;;;;65.45;25.17;;;;;;;-7.31;64.12;97323.15;1794456;79;26084;-88
2021/03/21 03:31:01;;;;;;;71.77;26.40;;;;;;;-7.21;64.21;97320.27;1789465;79;26215;-87
2021/03/21 03:33:29;;;;;;;74.75;28.90;;;;;;;-7.17;64.15;97308.63;1793140;79;26414;-86
2021/03/21 03:35:57;;;;;;;54.33;24.05;;;;;;;-7.18;64.14;97304.33;1794458;79;25666;-87
2021/03/21 03:38:24;;;;;;;60.20;24.80;;;;;;;-7.27;64.04;97303.18;1794337;79;27500;-87
2021/03/21 03:40:56;;;;;;;60.80;23.02;;;;;;;-7.33;64.08;97294.87;1794423;79;25829;-88
2021/03/21 03:43:35;;;;;;;51.63;23.50;;;;;;;-7.32;64.11;97295.24;1794415;79;25482;-87
2021/03/21 03:46:33;;;;;;;56.33;22.90;;;;;;;-7.29;64.11;97289.80;1794304;78;25714;-87
2021/03/21 03:49:14;;;;;;;57.70;22.55;;;;;;;-7.28;64.00;97281.83;1793465;79;25699;-88
2021/03/21 03:52:23;;;;;;;55.13;22.53;;;;;;;-7.35;63.98;97273.16;1784705;79;27501;-86
2021/03/21 03:55:05;;;;;;;52.70;21.73;;;;;;;-7.40;64.04;97268.24;1794463;79;26091;-88
2021/03/21 03:57:40;;;;;;;55.17;23.00;;;;;;;-7.43;64.11;97261.05;1794590;79;25722;-86
2021/03/21 04:00:22;;;;;;;54.65;23.12;;;;;;;-7.50;64.07;97262.41;1794578;79;25735;-87
2021/03/21 04:03:13;;;;;;;53.20;21.50;;;;;;;-7.56;64.13;97249.70;1794633;79;32445;-86
2021/03/21 04:06:06;;;;;;;51.25;21.77;;;;;;;-7.66;64.14;97252.95;1794321;79;27602;-86
2021/03/21 04:09:00;;;;;;;57.27;21.82;;;;;;;-7.73;64.17;97250.36;1762925;79;25814;-86
2021/03/21 04:11:39;;;;;;;61.35;24.75;;;;;;;-7.70;64.48;97247.55;1794061;79;25770;-87
2021/03/21 04:14:18;;;;;;;71.72;29.20;;;;;;;-7.67;64.39;97231.62;1791884;78;26218;-86
2021/03/21 04:16:59;;;;;;;69.00;27.20;;;;;;;-7.70;64.39;97234.44;1793749;79;25848;-86
2021/03/21 04:19:31;;;;;;;70.90;28.35;;;;;;;-7.81;64.17;97236.95;1793969;79;27508;-86
2021/03/21 04:22:12;;;;;;;72.22;30.68;;;;;;;-7.88;64.36;97238.31;1793819;79;25707;-84
2021/03/21 04:24:45;;;;;;;64.75;28.65;;;;;;;-7.88;64.46;97234.84;1793928;79;25661;-87
2021/03/21 04:27:23;;;;;;;77.30;29.12;;;;;;;-7.89;64.51;97225.30;1793798;79;26518;-85
2021/03/21 04:30:15;;;;;;;75.22;29.02;;;;;;;-7.82;64.53;97225.25;1793171;79;25912;-86
2021/03/21 04:32:51;;;;;;;82.78;32.45;;;;;;;-7.79;64.44;97215.88;1793683;79;27564;-86
2021/03/21 04:35:30;;;;;;;98.20;36.75;;;;;;;-7.76;64.43;97211.75;1793695;79;26242;-87
2021/03/21 04:38:04;;;;;;;76.92;30.35;;;;;;;-7.78;64.45;97214.47;1782098;79;25769;-86
2021/03/21 04:40:32;;;;;;;74.03;32.13;;;;;;;-7.76;64.48;97207.35;1760852;79;25926;-87
2021/03/21 04:43:22;;;;;;;72.85;30.02;;;;;;;-7.76;64.41;97199.48;1793776;79;25849;-87
2021/03/21 04:45:53;;;;;;;66.45;29.18;;;;;;;-7.82;64.48;97198.58;1793790;79;28395;-87
2021/03/21 04:48:26;;;;;;;;;;;;;;;-7.79;64.59;97202.31;1796294;78;25741;-86
2021/03/21 04:51:01;;;;;;;68.07;27.85;;;;;;;-7.77;64.59;97198.28;1760959;79;25781;-84
2021/03/21 04:53:48;;;;;;;76.47;30.35;;;;;;;-7.80;64.57;97195.86;1793722;79;25718;-87
2021/03/21 04:56:48;;;;;;;87.42;32.48;;;;;;;-7.85;64.51;97196.66;1793844;79;25857;-85
2021/03/21 04:59:29;;;;;;;80.55;32.55;;;;;;;-7.81;64.66;97197.64;1793723;79;27545;-86
2021/03/21 05:02:20;;;;;;;90.15;36.10;;;;;;;-7.74;64.65;97189.75;1793768;79;25841;-86
2021/03/21 05:04:58;;;;;;;90.12;35.08;;;;;;;-7.74;64.65;97196.30;1780395;79;25818;-85
2021/03/21 05:07:46;;;;;;;80.62;30.30;;;;;;;-7.79;64.73;97198.38;1767112;80;26164;-86
2021/03/21 05:10:35;;;;;;;74.07;28.92;;;;;;;-7.74;64.76;97191.06;1725655;83;25767;-86
2021/03/21 05:13:24;;;;;;;72.82;30.80;;;;;;;-7.85;64.74;97190.95;1717951;83;28459;-86
2021/03/21 05:16:05;;;;;;;75.00;31.57;;;;;;;-7.85;64.90;97187.02;1717936;83;25841;-85
2021/03/21 05:18:58;;;;;;;82.90;33.60;;;;;;;-7.85;64.88;97188.33;1718191;83;25850;-85
2021/03/21 05:21:37;;;;;;;;;;;;;;;-7.81;65.01;97170.59;1720492;83;25816;-85
2021/03/21 05:27:18;;;;;;;83.47;31.23;;;;;;;-7.54;65.16;97163.47;1886863;76;35037;-88
2021/03/21 05:30:06;;;;;;;85.32;30.35;;;;;;;-7.71;64.94;97165.92;1857746;77;25840;-87
2021/03/21 05:32:34;;;;;;;111.92;41.42;;;;;;;-7.60;65.12;97159.11;1857705;77;27508;-87
2021/03/21 05:35:03;;;;;;;113.28;39.13;;;;;;;-7.59;65.30;97159.47;1857697;77;25791;-88
2021/03/21 05:38:00;;;;;;;126.45;44.70;;;;;;;-7.42;65.54;97160.00;1857759;77;25760;-86
2021/03/21 05:40:47;;;;;;;101.22;35.50;;;;;;;-7.40;65.33;97152.87;1857878;77;25708;-86
2021/03/21 05:43:46;;;;;;;75.35;30.68;;;;;;;-7.21;65.50;97157.64;1741771;82;25811;-87
2021/03/21 05:46:22;;;;;;;78.35;32.63;;;;;;;-6.98;65.50;97145.52;1741875;82;27537;-92
2021/03/21 05:49:28;;;;;;;64.20;24.87;;;;;;;-6.81;65.14;97139.06;1742072;82;26020;-88
2021/03/21 05:52:21;;;;;;;62.50;24.63;;;;;;;-6.74;64.79;97137.66;1742430;81;25786;-89
2021/03/21 05:55:17;;;;;;;52.88;21.52;;;;;;;-6.66;64.66;97127.45;1742224;82;25754;-90
2021/03/21 05:58:21;;;;;;;38.60;16.67;;;;;;;-6.47;64.52;97136.95;1742091;81;26009;-88
2021/03/21 06:01:09;;;;;;;33.73;12.98;;;;;;;-6.33;64.22;97130.21;1742049;81;27487;-92
2021/03/21 06:03:44;;;;;;;30.02;11.78;;;;;;;-6.14;64.09;97134.08;1741485;81;25802;-90
2021/03/21 06:06:45;;;;;;;24.70;12.10;;;;;;;-5.97;63.63;97124.45;1741972;81;25713;-88
2021/03/21 06:09:30;;;;;;;27.17;11.48;;;;;;;-5.84;63.35;97127.80;1742173;81;25867;-88
2021/03/21 06:12:37;;;;;;;34.78;13.90;;;;;;;-5.67;63.14;97119.44;1742064;82;26245;-90
2021/03/21 06:18:23;;;;;;;26.95;11.85;;;;;;;-5.39;62.40;97113.36;1849332;76;34777;-88
2021/03/21 06:21:17;;;;;;;31.15;14.07;;;;;;;-5.34;62.39;97120.42;1820318;77;26721;-87
2021/03/21 06:24:18;;;;;;;30.32;12.73;;;;;;;-5.21;62.17;97107.98;1819172;78;27484;-88
2021/03/21 06:27:26;;;;;;;44.35;18.20;;;;;;;-5.09;61.81;97104.37;1766280;78;25928;-91
2021/03/21 06:30:16;;;;;;;41.00;17.85;;;;;;;-5.02;61.57;97103.39;1819878;78;25819;-88
2021/03/21 06:33:14;;;;;;;25.00;12.13;;;;;;;-4.88;61.82;97089.48;1820337;78;26310;-87
2021/03/21 06:35:59;;;;;;;24.35;12.63;;;;;;;-4.72;61.30;97089.08;1820243;77;25789;-86
2021/03/21 06:38:50;;;;;;;28.57;12.88;;;;;;;-4.60;60.96;97087.25;1819939;78;27584;-87
2021/03/21 06:41:48;;;;;;;22.85;9.25;;;;;;;-4.49;60.82;97076.66;1820076;78;25827;-89
2021/03/21 06:44:52;;;;;;;35.65;15.13;;;;;;;-4.37;60.68;97073.02;1820390;78;25698;-90
2021/03/21 06:48:02;;;;;;;25.45;11.90;;;;;;;-4.23;60.21;97064.80;1820301;78;26216;-93
2021/03/21 06:50:50;;;;;;;21.37;10.25;;;;;;;-4.16;60.02;97040.91;1800374;79;25830;-93
2021/03/21 06:53:38;;;;;;;20.82;8.68;;;;;;;-3.87;59.61;97058.70;1800458;79;28450;-88
2021/03/21 06:59:49;;;;;;;21.52;9.73;;;;;;;-3.52;58.87;97052.55;1873739;76;35131;-91
2021/03/21 07:02:54;;;;;;;21.65;10.28;;;;;;;-3.46;58.72;97052.00;1852904;77;25710;-94
2021/03/21 07:05:46;;;;;;;25.45;10.70;;;;;;;-3.33;58.32;97046.00;1851748;77;27490;-88
2021/03/21 07:08:34;;;;;;;25.12;10.45;;;;;;;-3.21;58.12;97034.02;1853129;77;26101;-87
2021/03/21 07:11:40;;;;;;;24.47;10.98;;;;;;;-3.16;57.73;97031.82;1853064;77;25290;-91
2021/03/21 07:14:43;;;;;;;19.23;9.25;;;;;;;-3.06;57.49;97019.47;1852898;77;25685;-89
2021/03/21 07:17:52;;;;;;;17.37;8.63;;;;;;;-2.91;57.21;97024.23;1853023;77;25650;-90
2021/03/21 07:20:34;;;;;;;22.70;9.13;;;;;;;-2.77;56.92;97017.67;1853166;77;28563;-94
2021/03/21 07:23:29;;;;;;;20.65;10.40;;;;;;;-2.61;56.50;97004.76;1853043;77;25742;-92
2021/03/21 07:26:39;;;;;;;21.20;11.20;;;;;;;-2.42;56.28;97010.53;1851260;77;25321;-91
2021/03/21 07:29:39;;;;;;;22.75;9.43;;;;;;;-2.23;56.22;96999.92;1853138;77;25825;-87
2021/03/21 07:32:29;;;;;;;20.23;7.85;;;;;;;-1.90;56.28;97005.68;1853050;77;25672;-87
2021/03/21 07:35:35;;;;;;;15.08;7.72;;;;;;;-1.77;55.59;96998.75;1852909;77;28453;-88
2021/03/21 07:38:58;;;;;;;16.45;7.33;;;;;;;-1.67;54.78;96991.59;1852619;77;25688;-91
2021/03/21 07:41:43;;;;;;;14.78;7.22;;;;;;;-1.34;54.64;96969.86;1853013;76;26755;-86
2021/03/21 07:44:38;;;;;;;12.50;6.67;;;;;;;-0.85;53.70;96963.75;1852981;77;25842;-90
2021/03/21 07:47:46;;;;;;;14.93;7.20;;;;;;;-0.50;53.39;96965.55;1852832;77;25709;-92
2021/03/21 07:50:18;;;;;;;11.00;5.40;;;;;;;-0.36;53.24;96953.04;1853462;77;27492;-89
2021/03/21 07:53:28;;;;;;;13.40;5.33;;;;;;;-0.37;51.84;96958.88;1853648;77;26311;-91
2021/03/21 07:56:15;;;;;;;10.18;4.87;;;;;;;-0.36;51.35;96951.22;1853372;77;25807;-92
2021/03/21 07:58:59;;;;;;;9.28;4.83;;;;;;;-0.10;51.31;96934.48;1852661;77;25618;-89
2021/03/21 08:01:27;;;;;;;10.88;4.62;;;;;;;0.19;51.32;96933.67;1853208;77;25823;-85
2021/03/21 08:04:02;;;;;;;16.80;6.42;;;;;;;0.63;51.39;96934.34;1852923;77;27797;-88
2021/03/21 08:06:59;;;;;;;10.08;4.72;;;;;;;0.87;50.61;96924.77;1852878;77;26172;-86
2021/03/21 08:09:38;;;;;;;16.00;7.40;;;;;;;0.90;49.82;96926.62;1850795;77;25780;-85
2021/03/21 08:12:17;;;;;;;13.43;4.85;;;;;;;0.95;49.25;96920.83;1852245;77;25828;-92
2021/03/21 08:14:58;;;;;;;14.35;6.22;;;;;;;0.89;47.69;96930.27;1852310;77;25817;-86
2021/03/21 08:17:33;;;;;;;9.85;5.53;;;;;;;0.77;48.06;96933.39;1852232;77;28528;-94
2021/03/21 08:20:06;;;;;;;11.73;5.53;;;;;;;0.73;48.25;96936.36;1852055;77;26175;-84
2021/03/21 08:22:34;;;;;;;11.18;5.20;;;;;;;0.72;47.41;96920.61;1852163;77;25711;-85
2021/03/21 08:25:27;;;;;;;17.25;7.33;;;;;;;0.64;47.32;96919.23;1852097;77;25734;-84
2021/03/21 08:27:56;;;;;;;14.55;6.78;;;;;;;0.70;47.89;96910.64;1852175;77;25777;-86
2021/03/21 08:30:27;;;;;;;9.28;5.50;;;;;;;0.71;47.77;96907.83;1851982;77;27493;-83
2021/03/21 08:33:01;;;;;;;10.58;5.40;;;;;;;0.72;47.57;96906.00;1848225;77;26217;-85
2021/03/21 08:35:33;;;;;;;12.00;6.33;;;;;;;0.60;47.23;96901.48;1852085;77;25760;-85
2021/03/21 08:38:14;;;;;;;15.50;7.75;;;;;;;0.52;47.15;96897.45;1851965;77;26137;-85
2021/03/21 08:40:43;;;;;;;11.28;6.70;;;;;;;0.51;47.11;96894.47;1852043;77;25744;-85
2021/03/21 08:43:18;;;;;;;13.50;6.33;;;;;;;0.46;47.02;96884.84;1851890;77;28425;-84
2021/03/21 08:45:50;;;;;;;10.88;5.78;;;;;;;0.53;47.19;96886.34;1852112;77;25836;-85
2021/03/21 08:48:36;;;;;;;13.58;7.15;;;;;;;0.55;47.15;96887.02;1851963;77;25697;-86
2021/03/21 08:51:18;;;;;;;12.37;6.90;;;;;;;0.54;46.96;96875.56;1852019;77;25505;-85
2021/03/21 08:54:03;;;;;;;14.83;5.85;;;;;;;0.60;47.04;96882.06;1852341;77;25295;-86
2021/03/21 08:56:36;;;;;;;11.10;6.28;;;;;;;0.66;47.12;96869.44;1852144;77;27483;-86
2021/03/21 08:59:27;;;;;;;12.93;6.75;;;;;;;0.71;47.35;96876.44;1811649;77;26183;-84
2021/03/21 09:02:11;;;;;;;14.63;7.17;;;;;;;0.73;47.22;96870.44;1843040;77;25674;-85
2021/03/21 09:05:02;;;;;;;17.02;7.65;;;;;;;0.68;46.51;96881.58;1843106;77;25733;-85
2021/03/21 09:07:36;;;;;;;15.05;6.37;;;;;;;0.56;46.72;96874.07;1843102;77;25772;-88
2021/03/21 09:10:24;;;;;;;14.85;6.42;;;;;;;0.42;46.14;96872.87;1842659;77;27480;-88
2021/03/21 09:12:56;;;;;;;16.02;6.65;;;;;;;0.35;46.20;96863.89;1843092;77;26121;-89
2021/03/21 09:15:28;;;;;;;10.98;5.62;;;;;;;0.28;46.48;96861.04;1808437;77;25773;-87
2021/03/21 09:18:28;;;;;;;11.40;6.72;;;;;;;0.34;46.66;96855.59;1842192;77;25719;-86
2021/03/21 09:21:26;;;;;;;10.65;5.70;;;;;;;0.40;47.07;96853.61;1842644;77;25298;-87
2021/03/21 09:24:07;;;;;;;13.88;7.00;;;;;;;0.45;46.96;96853.13;1843037;77;27493;-84
2021/03/21 09:26:45;;;;;;;12.50;5.87;;;;;;;0.52;47.20;96847.50;1842985;77;26083;-85
2021/03/21 09:29:18;;;;;;;14.40;6.92;;;;;;;0.64;46.90;96855.48;1842712;77;25785;-85
2021/03/21 09:31:48;;;;;;;13.43;7.90;;;;;;;0.68;46.99;96849.70;1843060;77;25743;-87
2021/03/21 09:34:57;;;;;;;14.95;7.97;;;;;;;0.77;47.22;96842.56;1843007;77;25736;-87
2021/03/21 09:37:28;;;;;;;11.03;6.67;;;;;;;0.83;47.10;96841.92;1842884;77;27477;-85
2021/03/21 09:40:16;;;;;;;11.70;6.45;;;;;;;0.95;47.20;96832.63;1842910;77;26873;-86
2021/03/21 09:42:43;;;;;;;16.60;7.78;;;;;;;0.94;46.98;96836.28;1841818;77;25747;-85
2021/03/21 09:45:13;;;;;;;12.03;6.25;;;;;;;1.00;46.93;96836.94;1842994;77;26353;-86
2021/03/21 09:48:05;;;;;;;13.40;7.05;;;;;;;1.07;47.01;96829.98;1808347;77;25710;-86
2021/03/21 09:50:56;;;;;;;11.48;6.35;;;;;;;1.13;46.91;96834.28;1843018;77;27542;-85
2021/03/21 09:54:14;;;;;;;12.95;6.08;;;;;;;1.16;46.64;96824.66;1842300;77;26117;-87
2021/03/21 09:57:13;;;;;;;11.33;6.35;;;;;;;1.23;46.68;96818.98;1843095;77;25789;-84
2021/03/21 09:59:56;;;;;;;17.00;7.05;;;;;;;1.24;46.34;96823.30;1849969;77;25756;-85
2021/03/21 10:02:57;;;;;;;11.78;6.00;;;;;;;1.22;46.33;96818.65;1851983;77;26152;-85
2021/03/21 10:05:36;;;;;;;14.10;6.78;;;;;;;1.21;46.14;96822.33;1851257;77;27561;-85
2021/03/21 10:08:24;;;;;;;13.83;6.95;;;;;;;1.20;46.37;96816.19;1851290;77;25741;-86
2021/03/21 10:11:02;;;;;;;10.68;6.30;;;;;;;1.16;45.88;96805.55;1851610;77;25652;-85
2021/03/21 10:13:40;;;;;;;19.07;7.42;;;;;;;1.22;46.20;96811.50;1851952;77;25736;-85
2021/03/21 10:16:16;;;;;;;17.92;6.50;;;;;;;1.22;46.13;96804.03;1851921;77;25756;-84
2021/03/21 10:19:03;;;;;;;10.00;6.42;;;;;;;1.13;45.78;96804.55;1826944;77;27494;-85
2021/03/21 10:21:35;;;;;;;15.00;6.20;;;;;;;1.10;45.82;96799.55;1851806;77;26036;-84
2021/03/21 10:24:10;;;;;;;11.05;5.62;;;;;;;1.15;45.76;96798.56;1852120;77;25778;-86
2021/03/21 10:26:37;;;;;;;15.13;6.58;;;;;;;1.06;45.26;96793.77;1852039;77;25736;-84
2021/03/21 10:29:42;;;;;;;11.43;5.95;;;;;;;0.97;45.82;96787.27;1818928;77;25912;-83
2021/03/21 10:32:23;;;;;;;9.28;4.97;;;;;;;1.01;46.10;96792.09;1851912;77;28462;-85
2021/03/21 10:34:51;;;;;;;9.15;4.85;;;;;;;1.05;46.14;96794.76;1849325;77;25922;-85
2021/03/21 10:37:46;;;;;;;13.90;6.67;;;;;;;1.09;46.33;96796.06;1851645;77;25748;-85
2021/03/21 10:40:30;;;;;;;13.48;6.10;;;;;;;1.12;46.07;96792.74;1851750;77;25659;-86
2021/03/21 10:43:20;;;;;;;27.80;11.15;;;;;;;1.17;46.47;96785.11;1851135;77;25816;-86
2021/03/21 10:45:54;;;;;;;18.65;7.87;;;;;;;1.15;46.39;96776.47;1800565;77;28488;-84
2021/03/21 10:48:30;;;;;;;24.75;11.18;;;;;;;1.16;46.50;96780.79;1851806;77;25753;-83
2021/03/21 10:51:05;;;;;;;23.45;11.20;;;;;;;1.16;46.43;96782.95;1851845;77;25707;-87
2021/03/21 10:53:37;;;;;;;18.75;8.43;;;;;;;1.10;46.53;96784.94;1851787;77;25802;-88
2021/03/21 10:56:21;;;;;;;14.13;6.70;;;;;;;1.09;46.43;96790.75;1852075;77;25614;-86
2021/03/21 10:59:25;;;;;;;15.83;7.47;;;;;;;1.08;46.43;96785.13;1849023;77;28336;-84
2021/03/21 11:02:20;;;;;;;21.10;8.05;;;;;;;1.07;46.63;96790.11;1831518;77;25687;-88
2021/03/21 11:05:01;;;;;;;16.57;7.37;;;;;;;1.00;46.48;96783.78;1842911;77;25820;-86
2021/03/21 11:07:28;;;;;;;17.35;7.65;;;;;;;1.02;46.83;96776.97;1842211;77;26034;-83
2021/03/21 11:10:01;;;;;;;17.40;6.60;;;;;;;1.08;46.95;96773.17;1843076;77;25868;-86
2021/03/21 11:12:38;;;;;;;21.50;8.98;;;;;;;1.08;47.12;96782.97;1842991;77;27567;-86
2021/03/21 11:15:29;;;;;;;20.00;7.53;;;;;;;1.06;47.14;96767.18;1842875;77;25754;-86
2021/03/21 11:18:26;;;;;;;36.48;13.00;;;;;;;0.97;46.88;96761.52;1814999;77;25706;-88
2021/03/21 11:21:20;;;;;;;23.30;10.40;;;;;;;1.03;47.25;96758.20;1842544;77;26153;-86
2021/03/21 11:23:53;;;;;;;56.98;24.40;;;;;;;1.18;47.61;96755.70;1843051;77;25794;-89
2021/03/21 11:26:29;;;;;;;39.60;16.30;;;;;;;1.29;47.50;96748.70;1843108;77;28451;-88
2021/03/21 11:29:10;;;;;;;33.92;13.05;;;;;;;1.39;47.48;96751.16;1842805;77;25733;-87
2021/03/21 11:31:43;;;;;;;23.42;10.18;;;;;;;1.46;47.48;96754.78;1842992;77;26519;-86
2021/03/21 11:34:33;;;;;;;25.12;11.38;;;;;;;1.40;46.97;96747.01;1842965;77;25757;-85
2021/03/21 11:37:15;;;;;;;20.20;8.88;;;;;;;1.35;47.17;96739.20;1842902;77;25685;-85
2021/03/21 11:39:59;;;;;;;17.50;8.23;;;;;;;1.36;47.25;96734.21;1842938;77;27479;-88
2021/03/21 11:42:31;;;;;;;15.83;7.05;;;;;;;1.33;47.00;96729.23;1808163;77;25857;-86
2021/03/21 11:45:19;;;;;;;16.87;8.38;;;;;;;1.29;46.90;96739.39;1842143;77;25737;-84
2021/03/21 11:47:51;;;;;;;18.90;8.33;;;;;;;1.18;46.67;96729.62;1841981;77;25714;-85
2021/03/21 11:50:30;;;;;;;17.92;8.15;;;;;;;1.16;47.30;96728.95;1843254;77;25847;-86
2021/03/21 11:53:00;;;;;;;28.62;12.05;;;;;;;1.21;47.49;96733.27;1842502;77;27497;-85
2021/03/21 11:55:35;;;;;;;28.62;10.53;;;;;;;1.23;47.79;96729.42;1842965;77;25382;-86
2021/03/21 11:58:41;;;;;;;18.75;7.33;;;;;;;1.29;48.14;96739.89;1843015;77;25696;-86
2021/03/21 12:01:39;;;;;;;12.75;6.28;;;;;;;1.33;48.31;96729.23;1843089;77;25756;-86
2021/03/21 12:04:11;;;;;;;20.00;7.62;;;;;;;1.28;48.58;96727.09;1843199;77;25713;-86
2021/03/21 12:06:50;;;;;;;31.10;11.10;;;;;;;1.20;49.11;96727.12;1840106;77;27494;-86
2021/03/21 12:09:36;;;;;;;22.32;8.95;;;;;;;1.20;49.91;96729.78;1842927;77;25716;-86
2021/03/21 12:12:26;;;;;;;16.27;6.92;;;;;;;1.27;50.75;96729.92;1843048;77;25613;-85
2021/03/21 12:14:53;;;;;;;14.68;7.12;;;;;;;1.31;50.67;96731.25;1843077;77;26414;-85
2021/03/21 12:17:29;;;;;;;28.83;10.35;;;;;;;1.13;51.48;96720.81;1843026;77;25760;-87
2021/03/21 12:20:00;;;;;;;22.75;10.00;;;;;;;1.21;52.34;96719.98;1843114;77;27491;-86
2021/03/21 12:22:40;;;;;;;24.35;10.28;;;;;;;1.36;52.61;96714.27;1838200;77;26194;-85
2021/03/21 12:25:35;;;;;;;16.15;8.63;;;;;;;1.54;53.10;96700.26;1843024;77;25643;-86
2021/03/21 12:28:22;;;;;;;14.38;5.60;;;;;;;1.57;53.05;96701.22;1843090;77;25791;-86
2021/03/21 12:30:53;;;;;;;14.65;6.95;;;;;;;1.65;53.33;96692.39;1843141;77;25963;-86
2021/03/21 12:33:32;;;;;;;14.13;6.75;;;;;;;1.73;53.25;96688.36;1843102;77;28522;-86
2021/03/21 12:36:11;;;;;;;18.48;6.87;;;;;;;1.83;53.37;96696.95;1842953;77;25697;-86
2021/03/21 12:38:46;;;;;;;23.27;9.28;;;;;;;1.77;53.35;96687.84;1843003;77;25791;-88
2021/03/21 12:41:43;;;;;;;15.13;7.15;;;;;;;1.78;53.58;96693.50;1843065;77;26147;-87
2021/03/21 12:44:25;;;;;;;20.00;8.00;;;;;;;1.78;53.51;96691.34;1843105;77;25849;-88
2021/03/21 12:47:07;;;;;;;21.53;10.80;;;;;;;1.65;53.64;96694.55;1843317;77;27493;-86
2021/03/21 12:49:42;;;;;;;23.43;8.63;;;;;;;1.57;53.86;96686.59;1843001;77;25679;-85
2021/03/21 12:52:17;;;;;;;23.38;9.25;;;;;;;1.44;54.08;96678.36;1838017;77;26358;-87